sensor_id;sensor_type;location;lat;lon;timestamp;P1;durP1;ratioP1;P2;durP2;ratioP2
30892;SDS011;17595;50.884;4.346;2023-04-24T00:00:07;19.65;;;11.15;;
30892;SDS011;17595;50.884;4.346;2023-04-24T00:02:34;18.75;;;11.82;;
30892;SDS011;17595;50.884;4.346;2023-04-24T00:05:03;18.05;;;11.45;;
30892;SDS011;17595;50.884;4.346;2023-04-24T00:07:30;20.33;;;11.00;;
30892;SDS011;17595;50.884;4.346;2023-04-24T00:09:56;22.58;;;10.82;;
30892;SDS011;17595;50.884;4.346;2023-04-24T00:12:22;22.73;;;11.52;;
30892;SDS011;17595;50.884;4.346;2023-04-24T00:14:48;23.48;;;10.93;;
30892;SDS011;17595;50.884;4.346;2023-04-24T00:17:13;17.35;;;10.70;;
30892;SDS011;17595;50.884;4.346;2023-04-24T00:19:39;18.38;;;10.93;;
30892;SDS011;17595;50.884;4.346;2023-04-24T00:22:05;19.73;;;11.13;;
30892;SDS011;17595;50.884;4.346;2023-04-24T00:24:30;21.83;;;11.57;;
30892;SDS011;17595;50.884;4.346;2023-04-24T00:26:56;22.45;;;10.73;;
30892;SDS011;17595;50.884;4.346;2023-04-24T00:29:22;25.33;;;12.02;;
30892;SDS011;17595;50.884;4.346;2023-04-24T00:31:48;20.60;;;11.05;;
30892;SDS011;17595;50.884;4.346;2023-04-24T00:34:13;23.15;;;11.63;;
30892;SDS011;17595;50.884;4.346;2023-04-24T00:36:39;18.58;;;11.23;;
30892;SDS011;17595;50.884;4.346;2023-04-24T00:39:05;19.00;;;11.80;;
30892;SDS011;17595;50.884;4.346;2023-04-24T00:41:33;17.40;;;11.00;;
30892;SDS011;17595;50.884;4.346;2023-04-24T00:43:59;20.05;;;11.02;;
30892;SDS011;17595;50.884;4.346;2023-04-24T00:46:25;19.15;;;12.13;;
30892;SDS011;17595;50.884;4.346;2023-04-24T00:48:50;21.52;;;12.18;;
30892;SDS011;17595;50.884;4.346;2023-04-24T00:51:17;19.73;;;11.20;;
30892;SDS011;17595;50.884;4.346;2023-04-24T00:53:44;22.15;;;11.43;;
30892;SDS011;17595;50.884;4.346;2023-04-24T00:56:09;22.17;;;11.40;;
30892;SDS011;17595;50.884;4.346;2023-04-24T00:58:35;23.27;;;11.73;;
30892;SDS011;17595;50.884;4.346;2023-04-24T01:01:01;17.95;;;11.70;;
30892;SDS011;17595;50.884;4.346;2023-04-24T01:03:29;20.23;;;11.57;;
30892;SDS011;17595;50.884;4.346;2023-04-24T01:05:56;20.20;;;11.15;;
30892;SDS011;17595;50.884;4.346;2023-04-24T01:08:24;23.80;;;12.15;;
30892;SDS011;17595;50.884;4.346;2023-04-24T01:10:51;17.98;;;12.25;;
30892;SDS011;17595;50.884;4.346;2023-04-24T01:13:18;19.52;;;12.68;;
30892;SDS011;17595;50.884;4.346;2023-04-24T01:15:44;22.45;;;12.25;;
30892;SDS011;17595;50.884;4.346;2023-04-24T01:18:11;28.10;;;12.52;;
30892;SDS011;17595;50.884;4.346;2023-04-24T01:20:37;19.52;;;12.27;;
30892;SDS011;17595;50.884;4.346;2023-04-24T01:23:08;21.83;;;12.73;;
30892;SDS011;17595;50.884;4.346;2023-04-24T01:25:35;20.13;;;12.00;;
30892;SDS011;17595;50.884;4.346;2023-04-24T01:28:02;16.83;;;11.35;;
30892;SDS011;17595;50.884;4.346;2023-04-24T01:30:29;17.13;;;11.52;;
30892;SDS011;17595;50.884;4.346;2023-04-24T01:32:55;20.92;;;11.48;;
30892;SDS011;17595;50.884;4.346;2023-04-24T01:35:21;19.70;;;10.50;;
30892;SDS011;17595;50.884;4.346;2023-04-24T01:37:47;16.75;;;11.13;;
30892;SDS011;17595;50.884;4.346;2023-04-24T01:40:12;17.63;;;10.45;;
30892;SDS011;17595;50.884;4.346;2023-04-24T01:42:38;15.75;;;9.48;;
30892;SDS011;17595;50.884;4.346;2023-04-24T01:45:06;18.45;;;9.60;;
30892;SDS011;17595;50.884;4.346;2023-04-24T01:47:35;15.40;;;9.20;;
30892;SDS011;17595;50.884;4.346;2023-04-24T01:50:01;13.65;;;8.93;;
30892;SDS011;17595;50.884;4.346;2023-04-24T01:52:28;14.55;;;9.00;;
30892;SDS011;17595;50.884;4.346;2023-04-24T01:54:56;12.50;;;8.23;;
30892;SDS011;17595;50.884;4.346;2023-04-24T01:57:24;11.95;;;8.60;;
30892;SDS011;17595;50.884;4.346;2023-04-24T01:59:50;16.42;;;8.85;;
30892;SDS011;17595;50.884;4.346;2023-04-24T02:02:16;14.18;;;9.40;;
30892;SDS011;17595;50.884;4.346;2023-04-24T02:04:42;14.48;;;9.52;;
30892;SDS011;17595;50.884;4.346;2023-04-24T02:07:07;13.70;;;9.18;;
30892;SDS011;17595;50.884;4.346;2023-04-24T02:09:33;15.13;;;9.65;;
30892;SDS011;17595;50.884;4.346;2023-04-24T02:11:59;18.95;;;10.95;;
30892;SDS011;17595;50.884;4.346;2023-04-24T02:14:25;14.40;;;9.77;;
30892;SDS011;17595;50.884;4.346;2023-04-24T02:16:51;13.38;;;9.73;;
30892;SDS011;17595;50.884;4.346;2023-04-24T02:19:18;13.88;;;9.82;;
30892;SDS011;17595;50.884;4.346;2023-04-24T02:21:44;14.77;;;10.23;;
30892;SDS011;17595;50.884;4.346;2023-04-24T02:24:09;16.27;;;9.98;;
30892;SDS011;17595;50.884;4.346;2023-04-24T02:26:35;15.90;;;9.45;;
30892;SDS011;17595;50.884;4.346;2023-04-24T02:29:01;14.63;;;9.50;;
30892;SDS011;17595;50.884;4.346;2023-04-24T02:31:27;15.23;;;10.25;;
30892;SDS011;17595;50.884;4.346;2023-04-24T02:33:52;11.68;;;9.07;;
30892;SDS011;17595;50.884;4.346;2023-04-24T02:36:19;14.20;;;9.00;;
30892;SDS011;17595;50.884;4.346;2023-04-24T02:38:44;13.73;;;8.60;;
30892;SDS011;17595;50.884;4.346;2023-04-24T02:41:10;20.33;;;10.30;;
30892;SDS011;17595;50.884;4.346;2023-04-24T02:43:36;13.35;;;9.85;;
30892;SDS011;17595;50.884;4.346;2023-04-24T02:46:01;16.92;;;9.35;;
30892;SDS011;17595;50.884;4.346;2023-04-24T02:48:27;15.63;;;9.52;;
30892;SDS011;17595;50.884;4.346;2023-04-24T02:50:53;14.88;;;10.70;;
30892;SDS011;17595;50.884;4.346;2023-04-24T02:53:19;17.00;;;9.93;;
30892;SDS011;17595;50.884;4.346;2023-04-24T02:55:45;13.30;;;9.70;;
30892;SDS011;17595;50.884;4.346;2023-04-24T02:58:11;13.68;;;9.35;;
30892;SDS011;17595;50.884;4.346;2023-04-24T03:00:38;15.05;;;10.80;;
30892;SDS011;17595;50.884;4.346;2023-04-24T03:03:04;16.58;;;10.82;;
30892;SDS011;17595;50.884;4.346;2023-04-24T03:05:30;14.00;;;10.55;;
30892;SDS011;17595;50.884;4.346;2023-04-24T03:07:56;16.75;;;10.13;;
30892;SDS011;17595;50.884;4.346;2023-04-24T03:10:21;14.07;;;9.82;;
30892;SDS011;17595;50.884;4.346;2023-04-24T03:12:47;11.95;;;9.13;;
30892;SDS011;17595;50.884;4.346;2023-04-24T03:15:13;14.20;;;9.30;;
30892;SDS011;17595;50.884;4.346;2023-04-24T03:17:39;14.45;;;9.27;;
30892;SDS011;17595;50.884;4.346;2023-04-24T03:20:05;11.80;;;8.00;;
30892;SDS011;17595;50.884;4.346;2023-04-24T03:22:33;11.07;;;7.95;;
30892;SDS011;17595;50.884;4.346;2023-04-24T03:24:58;13.02;;;8.32;;
30892;SDS011;17595;50.884;4.346;2023-04-24T03:27:26;11.02;;;8.20;;
30892;SDS011;17595;50.884;4.346;2023-04-24T03:29:52;15.68;;;8.02;;
30892;SDS011;17595;50.884;4.346;2023-04-24T03:32:21;16.58;;;8.45;;
30892;SDS011;17595;50.884;4.346;2023-04-24T03:34:47;11.68;;;8.32;;
30892;SDS011;17595;50.884;4.346;2023-04-24T03:37:14;10.00;;;8.00;;
30892;SDS011;17595;50.884;4.346;2023-04-24T03:39:40;14.25;;;8.85;;
30892;SDS011;17595;50.884;4.346;2023-04-24T03:42:06;13.50;;;8.93;;
30892;SDS011;17595;50.884;4.346;2023-04-24T03:44:33;9.90;;;7.50;;
30892;SDS011;17595;50.884;4.346;2023-04-24T03:46:59;10.98;;;7.47;;
30892;SDS011;17595;50.884;4.346;2023-04-24T03:49:25;10.68;;;7.50;;
30892;SDS011;17595;50.884;4.346;2023-04-24T03:51:51;11.02;;;8.07;;
30892;SDS011;17595;50.884;4.346;2023-04-24T03:54:17;11.95;;;8.52;;
30892;SDS011;17595;50.884;4.346;2023-04-24T03:56:43;12.98;;;8.27;;
30892;SDS011;17595;50.884;4.346;2023-04-24T03:59:09;10.30;;;8.63;;
30892;SDS011;17595;50.884;4.346;2023-04-24T04:01:36;11.57;;;8.07;;
30892;SDS011;17595;50.884;4.346;2023-04-24T04:04:05;13.90;;;7.72;;
30892;SDS011;17595;50.884;4.346;2023-04-24T04:06:32;10.10;;;7.15;;
30892;SDS011;17595;50.884;4.346;2023-04-24T04:08:58;10.57;;;7.50;;
30892;SDS011;17595;50.884;4.346;2023-04-24T04:11:25;7.20;;;6.40;;
30892;SDS011;17595;50.884;4.346;2023-04-24T04:13:51;9.98;;;7.30;;
30892;SDS011;17595;50.884;4.346;2023-04-24T04:16:17;9.93;;;6.80;;
30892;SDS011;17595;50.884;4.346;2023-04-24T04:18:43;8.70;;;6.85;;
30892;SDS011;17595;50.884;4.346;2023-04-24T04:21:09;9.10;;;6.40;;
30892;SDS011;17595;50.884;4.346;2023-04-24T04:23:34;12.02;;;7.15;;
30892;SDS011;17595;50.884;4.346;2023-04-24T04:26:00;10.73;;;7.80;;
30892;SDS011;17595;50.884;4.346;2023-04-24T04:28:27;10.05;;;7.50;;
30892;SDS011;17595;50.884;4.346;2023-04-24T04:30:52;10.82;;;7.50;;
30892;SDS011;17595;50.884;4.346;2023-04-24T04:33:21;8.35;;;7.38;;
30892;SDS011;17595;50.884;4.346;2023-04-24T04:35:47;7.90;;;6.50;;
30892;SDS011;17595;50.884;4.346;2023-04-24T04:38:21;8.07;;;6.95;;
30892;SDS011;17595;50.884;4.346;2023-04-24T04:40:48;12.30;;;7.28;;
30892;SDS011;17595;50.884;4.346;2023-04-24T04:43:14;9.88;;;6.65;;
30892;SDS011;17595;50.884;4.346;2023-04-24T04:45:41;10.98;;;8.10;;
30892;SDS011;17595;50.884;4.346;2023-04-24T04:48:08;13.38;;;7.85;;
30892;SDS011;17595;50.884;4.346;2023-04-24T04:50:35;12.95;;;8.18;;
30892;SDS011;17595;50.884;4.346;2023-04-24T04:53:00;11.68;;;7.47;;
30892;SDS011;17595;50.884;4.346;2023-04-24T04:55:26;14.10;;;9.20;;
30892;SDS011;17595;50.884;4.346;2023-04-24T04:57:52;13.65;;;8.93;;
30892;SDS011;17595;50.884;4.346;2023-04-24T05:00:18;19.23;;;10.13;;
30892;SDS011;17595;50.884;4.346;2023-04-24T05:02:44;19.00;;;11.15;;
30892;SDS011;17595;50.884;4.346;2023-04-24T05:05:09;18.65;;;11.43;;
30892;SDS011;17595;50.884;4.346;2023-04-24T05:07:35;20.00;;;12.05;;
30892;SDS011;17595;50.884;4.346;2023-04-24T05:10:01;22.92;;;12.45;;
30892;SDS011;17595;50.884;4.346;2023-04-24T05:12:27;20.38;;;11.95;;
30892;SDS011;17595;50.884;4.346;2023-04-24T05:14:53;20.58;;;11.93;;
30892;SDS011;17595;50.884;4.346;2023-04-24T05:17:19;21.90;;;13.07;;
30892;SDS011;17595;50.884;4.346;2023-04-24T05:19:45;20.67;;;12.57;;
30892;SDS011;17595;50.884;4.346;2023-04-24T05:22:11;18.90;;;12.20;;
30892;SDS011;17595;50.884;4.346;2023-04-24T05:24:38;23.25;;;12.75;;
30892;SDS011;17595;50.884;4.346;2023-04-24T05:27:04;19.52;;;12.18;;
30892;SDS011;17595;50.884;4.346;2023-04-24T05:29:33;25.08;;;12.77;;
30892;SDS011;17595;50.884;4.346;2023-04-24T05:31:59;20.70;;;13.75;;
30892;SDS011;17595;50.884;4.346;2023-04-24T05:34:25;19.55;;;12.95;;
30892;SDS011;17595;50.884;4.346;2023-04-24T05:36:51;22.85;;;13.35;;
30892;SDS011;17595;50.884;4.346;2023-04-24T05:39:17;19.70;;;12.70;;
30892;SDS011;17595;50.884;4.346;2023-04-24T05:41:43;21.05;;;12.88;;
30892;SDS011;17595;50.884;4.346;2023-04-24T05:44:09;24.33;;;13.25;;
30892;SDS011;17595;50.884;4.346;2023-04-24T05:46:34;23.70;;;13.27;;
30892;SDS011;17595;50.884;4.346;2023-04-24T05:49:01;19.45;;;12.55;;
30892;SDS011;17595;50.884;4.346;2023-04-24T05:51:27;16.70;;;11.98;;
30892;SDS011;17595;50.884;4.346;2023-04-24T05:53:53;23.60;;;13.70;;
30892;SDS011;17595;50.884;4.346;2023-04-24T05:56:19;21.27;;;13.52;;
30892;SDS011;17595;50.884;4.346;2023-04-24T05:58:46;23.15;;;13.27;;
30892;SDS011;17595;50.884;4.346;2023-04-24T06:01:12;18.42;;;13.05;;
30892;SDS011;17595;50.884;4.346;2023-04-24T06:03:39;21.75;;;13.23;;
30892;SDS011;17595;50.884;4.346;2023-04-24T06:06:06;18.67;;;12.98;;
30892;SDS011;17595;50.884;4.346;2023-04-24T06:08:32;21.17;;;13.30;;
30892;SDS011;17595;50.884;4.346;2023-04-24T06:10:58;21.42;;;13.57;;
30892;SDS011;17595;50.884;4.346;2023-04-24T06:13:23;21.85;;;13.05;;
30892;SDS011;17595;50.884;4.346;2023-04-24T06:15:49;24.13;;;13.30;;
30892;SDS011;17595;50.884;4.346;2023-04-24T06:18:15;19.80;;;12.10;;
30892;SDS011;17595;50.884;4.346;2023-04-24T06:20:41;24.17;;;14.48;;
30892;SDS011;17595;50.884;4.346;2023-04-24T06:23:07;19.20;;;13.20;;
30892;SDS011;17595;50.884;4.346;2023-04-24T06:25:32;24.33;;;14.35;;
30892;SDS011;17595;50.884;4.346;2023-04-24T06:27:58;25.25;;;13.75;;
30892;SDS011;17595;50.884;4.346;2023-04-24T06:30:25;22.48;;;13.65;;
30892;SDS011;17595;50.884;4.346;2023-04-24T06:32:52;25.83;;;14.13;;
30892;SDS011;17595;50.884;4.346;2023-04-24T06:35:18;18.88;;;13.50;;
30892;SDS011;17595;50.884;4.346;2023-04-24T06:37:43;19.55;;;13.20;;
30892;SDS011;17595;50.884;4.346;2023-04-24T06:40:09;26.95;;;14.07;;
30892;SDS011;17595;50.884;4.346;2023-04-24T06:42:35;26.17;;;14.85;;
30892;SDS011;17595;50.884;4.346;2023-04-24T06:45:01;27.13;;;15.55;;
30892;SDS011;17595;50.884;4.346;2023-04-24T06:47:27;28.23;;;14.90;;
30892;SDS011;17595;50.884;4.346;2023-04-24T06:49:53;22.10;;;14.65;;
30892;SDS011;17595;50.884;4.346;2023-04-24T06:52:20;27.73;;;15.25;;
30892;SDS011;17595;50.884;4.346;2023-04-24T06:54:46;24.08;;;14.73;;
30892;SDS011;17595;50.884;4.346;2023-04-24T06:57:11;26.88;;;15.52;;
30892;SDS011;17595;50.884;4.346;2023-04-24T06:59:37;27.20;;;15.20;;
30892;SDS011;17595;50.884;4.346;2023-04-24T07:02:03;28.95;;;16.35;;
30892;SDS011;17595;50.884;4.346;2023-04-24T07:04:29;31.85;;;15.88;;
30892;SDS011;17595;50.884;4.346;2023-04-24T07:06:55;27.85;;;15.38;;
30892;SDS011;17595;50.884;4.346;2023-04-24T07:09:23;30.75;;;15.50;;
30892;SDS011;17595;50.884;4.346;2023-04-24T07:11:50;23.77;;;15.07;;
30892;SDS011;17595;50.884;4.346;2023-04-24T07:14:16;27.88;;;15.68;;
30892;SDS011;17595;50.884;4.346;2023-04-24T07:16:42;28.05;;;15.45;;
30892;SDS011;17595;50.884;4.346;2023-04-24T07:19:09;28.38;;;15.45;;
30892;SDS011;17595;50.884;4.346;2023-04-24T07:21:36;27.00;;;14.88;;
30892;SDS011;17595;50.884;4.346;2023-04-24T07:24:01;21.70;;;13.85;;
30892;SDS011;17595;50.884;4.346;2023-04-24T07:26:28;27.75;;;15.55;;
30892;SDS011;17595;50.884;4.346;2023-04-24T07:28:54;28.00;;;13.57;;
30892;SDS011;17595;50.884;4.346;2023-04-24T07:31:20;22.10;;;12.85;;
30892;SDS011;17595;50.884;4.346;2023-04-24T07:33:47;23.63;;;13.15;;
30892;SDS011;17595;50.884;4.346;2023-04-24T07:36:13;20.88;;;12.32;;
30892;SDS011;17595;50.884;4.346;2023-04-24T07:38:44;23.52;;;11.73;;
30892;SDS011;17595;50.884;4.346;2023-04-24T07:41:11;22.15;;;11.93;;
30892;SDS011;17595;50.884;4.346;2023-04-24T07:43:40;17.27;;;10.38;;
30892;SDS011;17595;50.884;4.346;2023-04-24T07:46:06;16.77;;;8.82;;
30892;SDS011;17595;50.884;4.346;2023-04-24T07:48:33;20.85;;;10.65;;
30892;SDS011;17595;50.884;4.346;2023-04-24T07:50:59;15.45;;;8.88;;
30892;SDS011;17595;50.884;4.346;2023-04-24T07:53:25;16.83;;;9.60;;
30892;SDS011;17595;50.884;4.346;2023-04-24T07:55:50;15.93;;;9.45;;
30892;SDS011;17595;50.884;4.346;2023-04-24T07:58:16;20.85;;;9.82;;
30892;SDS011;17595;50.884;4.346;2023-04-24T08:00:42;18.58;;;10.95;;
30892;SDS011;17595;50.884;4.346;2023-04-24T08:03:09;22.98;;;10.60;;
30892;SDS011;17595;50.884;4.346;2023-04-24T08:05:34;20.70;;;10.43;;
30892;SDS011;17595;50.884;4.346;2023-04-24T08:08:00;23.75;;;11.45;;
30892;SDS011;17595;50.884;4.346;2023-04-24T08:10:26;19.77;;;10.07;;
30892;SDS011;17595;50.884;4.346;2023-04-24T08:12:51;15.65;;;9.45;;
30892;SDS011;17595;50.884;4.346;2023-04-24T08:15:17;18.23;;;9.50;;
30892;SDS011;17595;50.884;4.346;2023-04-24T08:17:43;14.57;;;8.95;;
30892;SDS011;17595;50.884;4.346;2023-04-24T08:20:09;19.60;;;8.65;;
30892;SDS011;17595;50.884;4.346;2023-04-24T08:22:41;19.05;;;7.90;;
30892;SDS011;17595;50.884;4.346;2023-04-24T08:25:08;17.15;;;7.90;;
30892;SDS011;17595;50.884;4.346;2023-04-24T08:27:34;25.17;;;8.65;;
30892;SDS011;17595;50.884;4.346;2023-04-24T08:30:01;16.40;;;8.57;;
30892;SDS011;17595;50.884;4.346;2023-04-24T08:32:30;16.50;;;8.07;;
30892;SDS011;17595;50.884;4.346;2023-04-24T08:34:56;19.75;;;7.45;;
30892;SDS011;17595;50.884;4.346;2023-04-24T08:37:22;18.00;;;7.35;;
30892;SDS011;17595;50.884;4.346;2023-04-24T08:39:51;20.08;;;7.00;;
30892;SDS011;17595;50.884;4.346;2023-04-24T08:42:18;17.80;;;7.38;;
30892;SDS011;17595;50.884;4.346;2023-04-24T08:44:44;15.50;;;6.65;;
30892;SDS011;17595;50.884;4.346;2023-04-24T08:47:11;15.95;;;6.43;;
30892;SDS011;17595;50.884;4.346;2023-04-24T08:49:37;18.02;;;7.07;;
30892;SDS011;17595;50.884;4.346;2023-04-24T08:52:04;18.38;;;6.40;;
30892;SDS011;17595;50.884;4.346;2023-04-24T08:54:31;15.25;;;5.90;;
30892;SDS011;17595;50.884;4.346;2023-04-24T08:56:58;11.75;;;5.57;;
30892;SDS011;17595;50.884;4.346;2023-04-24T08:59:29;15.98;;;5.50;;
30892;SDS011;17595;50.884;4.346;2023-04-24T09:01:56;15.27;;;5.25;;
30892;SDS011;17595;50.884;4.346;2023-04-24T09:04:23;12.23;;;5.53;;
30892;SDS011;17595;50.884;4.346;2023-04-24T09:06:50;16.63;;;5.68;;
30892;SDS011;17595;50.884;4.346;2023-04-24T09:09:20;13.57;;;5.88;;
30892;SDS011;17595;50.884;4.346;2023-04-24T09:11:46;14.70;;;5.45;;
30892;SDS011;17595;50.884;4.346;2023-04-24T09:14:14;8.38;;;4.88;;
30892;SDS011;17595;50.884;4.346;2023-04-24T09:16:40;10.02;;;5.25;;
30892;SDS011;17595;50.884;4.346;2023-04-24T09:19:06;12.38;;;3.95;;
30892;SDS011;17595;50.884;4.346;2023-04-24T09:21:32;15.07;;;4.53;;
30892;SDS011;17595;50.884;4.346;2023-04-24T09:24:03;10.93;;;4.95;;
30892;SDS011;17595;50.884;4.346;2023-04-24T09:26:31;12.32;;;4.07;;
30892;SDS011;17595;50.884;4.346;2023-04-24T09:28:59;9.77;;;3.97;;
30892;SDS011;17595;50.884;4.346;2023-04-24T09:31:26;10.55;;;4.47;;
30892;SDS011;17595;50.884;4.346;2023-04-24T09:33:56;12.02;;;4.22;;
30892;SDS011;17595;50.884;4.346;2023-04-24T09:36:33;13.27;;;4.20;;
30892;SDS011;17595;50.884;4.346;2023-04-24T09:39:07;9.18;;;4.15;;
30892;SDS011;17595;50.884;4.346;2023-04-24T09:41:35;8.63;;;3.92;;
30892;SDS011;17595;50.884;4.346;2023-04-24T09:44:21;12.30;;;4.57;;
30892;SDS011;17595;50.884;4.346;2023-04-24T09:46:53;13.93;;;4.47;;
30892;SDS011;17595;50.884;4.346;2023-04-24T09:49:30;12.20;;;4.35;;
30892;SDS011;17595;50.884;4.346;2023-04-24T09:52:08;10.77;;;4.40;;
30892;SDS011;17595;50.884;4.346;2023-04-24T09:54:35;14.43;;;4.68;;
30892;SDS011;17595;50.884;4.346;2023-04-24T09:57:04;9.60;;;3.95;;
30892;SDS011;17595;50.884;4.346;2023-04-24T09:59:32;11.02;;;4.15;;
30892;SDS011;17595;50.884;4.346;2023-04-24T10:01:58;9.27;;;3.65;;
30892;SDS011;17595;50.884;4.346;2023-04-24T10:04:25;12.65;;;3.63;;
30892;SDS011;17595;50.884;4.346;2023-04-24T10:06:52;10.48;;;3.63;;
30892;SDS011;17595;50.884;4.346;2023-04-24T10:09:20;10.23;;;3.90;;
30892;SDS011;17595;50.884;4.346;2023-04-24T10:11:51;7.97;;;3.47;;
30892;SDS011;17595;50.884;4.346;2023-04-24T10:14:21;8.98;;;3.63;;
30892;SDS011;17595;50.884;4.346;2023-04-24T10:16:48;9.95;;;3.47;;
30892;SDS011;17595;50.884;4.346;2023-04-24T10:19:16;8.02;;;3.78;;
30892;SDS011;17595;50.884;4.346;2023-04-24T10:21:45;9.00;;;3.50;;
30892;SDS011;17595;50.884;4.346;2023-04-24T10:24:15;8.40;;;3.65;;
30892;SDS011;17595;50.884;4.346;2023-04-24T10:26:43;7.90;;;3.25;;
30892;SDS011;17595;50.884;4.346;2023-04-24T10:29:12;9.45;;;4.05;;
30892;SDS011;17595;50.884;4.346;2023-04-24T10:31:40;10.20;;;3.55;;
30892;SDS011;17595;50.884;4.346;2023-04-24T10:34:06;10.38;;;4.07;;
30892;SDS011;17595;50.884;4.346;2023-04-24T10:36:34;8.43;;;4.25;;
30892;SDS011;17595;50.884;4.346;2023-04-24T10:39:02;7.40;;;4.05;;
30892;SDS011;17595;50.884;4.346;2023-04-24T10:41:31;8.95;;;3.85;;
30892;SDS011;17595;50.884;4.346;2023-04-24T10:44:10;11.18;;;4.18;;
30892;SDS011;17595;50.884;4.346;2023-04-24T10:46:37;8.10;;;3.90;;
30892;SDS011;17595;50.884;4.346;2023-04-24T10:49:05;7.05;;;3.40;;
30892;SDS011;17595;50.884;4.346;2023-04-24T10:51:50;8.05;;;3.55;;
30892;SDS011;17595;50.884;4.346;2023-04-24T10:54:21;8.35;;;3.47;;
30892;SDS011;17595;50.884;4.346;2023-04-24T10:56:51;8.52;;;3.90;;
30892;SDS011;17595;50.884;4.346;2023-04-24T10:59:26;9.40;;;4.05;;
30892;SDS011;17595;50.884;4.346;2023-04-24T11:01:59;9.10;;;3.95;;
30892;SDS011;17595;50.884;4.346;2023-04-24T11:04:29;11.57;;;4.43;;
30892;SDS011;17595;50.884;4.346;2023-04-24T11:06:56;6.25;;;4.10;;
30892;SDS011;17595;50.884;4.346;2023-04-24T11:09:22;6.75;;;4.05;;
30892;SDS011;17595;50.884;4.346;2023-04-24T11:14:27;17.25;;;5.00;;
30892;SDS011;17595;50.884;4.346;2023-04-24T11:16:53;7.95;;;3.90;;
30892;SDS011;17595;50.884;4.346;2023-04-24T11:19:23;9.85;;;4.03;;
30892;SDS011;17595;50.884;4.346;2023-04-24T11:24:30;10.43;;;4.38;;
30892;SDS011;17595;50.884;4.346;2023-04-24T11:27:12;11.43;;;4.25;;
30892;SDS011;17595;50.884;4.346;2023-04-24T11:29:58;11.02;;;4.32;;
30892;SDS011;17595;50.884;4.346;2023-04-24T11:37:50;10.23;;;4.38;;
30892;SDS011;17595;50.884;4.346;2023-04-24T11:40:18;7.63;;;4.70;;
30892;SDS011;17595;50.884;4.346;2023-04-24T11:42:50;8.00;;;4.70;;
30892;SDS011;17595;50.884;4.346;2023-04-24T11:47:46;6.57;;;4.07;;
30892;SDS011;17595;50.884;4.346;2023-04-24T11:50:13;7.25;;;4.10;;
30892;SDS011;17595;50.884;4.346;2023-04-24T11:52:40;9.85;;;4.57;;
30892;SDS011;17595;50.884;4.346;2023-04-24T11:55:09;9.23;;;4.63;;
30892;SDS011;17595;50.884;4.346;2023-04-24T11:57:48;9.93;;;4.82;;
30892;SDS011;17595;50.884;4.346;2023-04-24T12:00:17;8.07;;;4.75;;
30892;SDS011;17595;50.884;4.346;2023-04-24T12:02:51;15.10;;;4.88;;
30892;SDS011;17595;50.884;4.346;2023-04-24T12:05:27;6.82;;;4.50;;
30892;SDS011;17595;50.884;4.346;2023-04-24T12:07:56;7.23;;;4.00;;
30892;SDS011;17595;50.884;4.346;2023-04-24T12:10:25;6.90;;;4.00;;
30892;SDS011;17595;50.884;4.346;2023-04-24T12:12:52;8.20;;;3.90;;
30892;SDS011;17595;50.884;4.346;2023-04-24T12:15:19;11.70;;;4.47;;
30892;SDS011;17595;50.884;4.346;2023-04-24T12:17:45;7.15;;;4.68;;
30892;SDS011;17595;50.884;4.346;2023-04-24T12:20:11;9.02;;;4.90;;
30892;SDS011;17595;50.884;4.346;2023-04-24T12:22:49;13.32;;;3.88;;
30892;SDS011;17595;50.884;4.346;2023-04-24T12:25:18;6.63;;;4.22;;
30892;SDS011;17595;50.884;4.346;2023-04-24T12:27:45;7.72;;;4.15;;
30892;SDS011;17595;50.884;4.346;2023-04-24T12:30:13;5.78;;;4.32;;
30892;SDS011;17595;50.884;4.346;2023-04-24T12:32:49;8.90;;;4.35;;
30892;SDS011;17595;50.884;4.346;2023-04-24T12:35:19;8.38;;;3.75;;
30892;SDS011;17595;50.884;4.346;2023-04-24T12:37:46;8.48;;;4.28;;
30892;SDS011;17595;50.884;4.346;2023-04-24T12:40:12;7.05;;;4.30;;
30892;SDS011;17595;50.884;4.346;2023-04-24T12:42:48;8.68;;;4.38;;
30892;SDS011;17595;50.884;4.346;2023-04-24T12:45:15;9.73;;;4.68;;
30892;SDS011;17595;50.884;4.346;2023-04-24T12:47:43;7.22;;;3.85;;
30892;SDS011;17595;50.884;4.346;2023-04-24T12:50:10;7.82;;;3.85;;
30892;SDS011;17595;50.884;4.346;2023-04-24T12:52:40;7.63;;;3.80;;
30892;SDS011;17595;50.884;4.346;2023-04-24T12:55:06;8.73;;;4.53;;
30892;SDS011;17595;50.884;4.346;2023-04-24T12:57:37;10.70;;;4.00;;
30892;SDS011;17595;50.884;4.346;2023-04-24T13:00:05;6.97;;;3.70;;
30892;SDS011;17595;50.884;4.346;2023-04-24T13:02:31;14.60;;;4.30;;
30892;SDS011;17595;50.884;4.346;2023-04-24T13:04:58;9.13;;;3.75;;
30892;SDS011;17595;50.884;4.346;2023-04-24T13:07:24;5.50;;;2.90;;
30892;SDS011;17595;50.884;4.346;2023-04-24T13:09:50;5.68;;;3.20;;
30892;SDS011;17595;50.884;4.346;2023-04-24T13:12:17;8.65;;;2.88;;
30892;SDS011;17595;50.884;4.346;2023-04-24T13:14:44;4.50;;;2.83;;
30892;SDS011;17595;50.884;4.346;2023-04-24T13:17:10;5.85;;;3.35;;
30892;SDS011;17595;50.884;4.346;2023-04-24T13:19:41;5.22;;;2.95;;
30892;SDS011;17595;50.884;4.346;2023-04-24T13:22:09;4.45;;;2.90;;
30892;SDS011;17595;50.884;4.346;2023-04-24T13:24:37;7.28;;;2.85;;
30892;SDS011;17595;50.884;4.346;2023-04-24T13:27:05;5.60;;;2.80;;
30892;SDS011;17595;50.884;4.346;2023-04-24T13:29:31;4.35;;;2.40;;
30892;SDS011;17595;50.884;4.346;2023-04-24T13:31:57;7.53;;;2.90;;
30892;SDS011;17595;50.884;4.346;2023-04-24T13:34:23;3.67;;;2.33;;
30892;SDS011;17595;50.884;4.346;2023-04-24T13:36:49;4.80;;;2.20;;
30892;SDS011;17595;50.884;4.346;2023-04-24T13:39:19;4.40;;;2.15;;
30892;SDS011;17595;50.884;4.346;2023-04-24T13:41:45;5.57;;;2.30;;
30892;SDS011;17595;50.884;4.346;2023-04-24T13:44:14;5.47;;;2.25;;
30892;SDS011;17595;50.884;4.346;2023-04-24T13:46:41;3.95;;;2.10;;
30892;SDS011;17595;50.884;4.346;2023-04-24T13:49:10;5.57;;;2.63;;
30892;SDS011;17595;50.884;4.346;2023-04-24T13:51:40;7.05;;;2.35;;
30892;SDS011;17595;50.884;4.346;2023-04-24T13:54:06;4.68;;;1.98;;
30892;SDS011;17595;50.884;4.346;2023-04-24T13:56:32;4.45;;;1.80;;
30892;SDS011;17595;50.884;4.346;2023-04-24T13:58:58;3.08;;;1.77;;
30892;SDS011;17595;50.884;4.346;2023-04-24T14:01:24;4.30;;;1.45;;
30892;SDS011;17595;50.884;4.346;2023-04-24T14:03:51;3.47;;;1.80;;
30892;SDS011;17595;50.884;4.346;2023-04-24T14:06:18;9.10;;;1.63;;
30892;SDS011;17595;50.884;4.346;2023-04-24T14:08:44;3.40;;;1.70;;
30892;SDS011;17595;50.884;4.346;2023-04-24T14:11:10;9.38;;;2.53;;
30892;SDS011;17595;50.884;4.346;2023-04-24T14:13:36;6.13;;;2.42;;
30892;SDS011;17595;50.884;4.346;2023-04-24T14:16:03;9.35;;;2.58;;
30892;SDS011;17595;50.884;4.346;2023-04-24T14:18:29;4.35;;;1.95;;
30892;SDS011;17595;50.884;4.346;2023-04-24T14:20:55;7.97;;;2.40;;
30892;SDS011;17595;50.884;4.346;2023-04-24T14:23:20;3.83;;;1.73;;
30892;SDS011;17595;50.884;4.346;2023-04-24T14:25:46;6.32;;;2.17;;
30892;SDS011;17595;50.884;4.346;2023-04-24T14:28:15;4.70;;;2.08;;
30892;SDS011;17595;50.884;4.346;2023-04-24T14:30:42;4.00;;;1.63;;
30892;SDS011;17595;50.884;4.346;2023-04-24T14:33:07;3.38;;;1.70;;
30892;SDS011;17595;50.884;4.346;2023-04-24T14:35:33;5.30;;;2.03;;
30892;SDS011;17595;50.884;4.346;2023-04-24T14:38:00;5.40;;;1.77;;
30892;SDS011;17595;50.884;4.346;2023-04-24T14:40:26;3.25;;;2.00;;
30892;SDS011;17595;50.884;4.346;2023-04-24T14:42:51;5.85;;;2.00;;
30892;SDS011;17595;50.884;4.346;2023-04-24T14:45:17;5.72;;;2.55;;